Pedro Gomes, Brazil
Current Conditions -  °F | °C
As of 12:00 PM on Friday 24 Oct 2014 (Local Time) from SBCG Reporting Station
Broken Clouds Broken Clouds  
Wind Chill: 79°   Ceiling: 10000
Heat Index: 81°   Visibility: 6mi
Dew Point: 64°   Wind: 13mph
Humidity: 61%   Direction: 50°NE
Pressure: 30"   Gusts: NA
Location:  18.1°S, 54.55°W
Report Text: SBCG 241500Z 05011KT 9999 FEW045 FEW050TCU BKN100 26/18 Q1016
Loading
Personal Weather Stations






























Interactive Weather Map
Tropical Storm Tracking
New forecast layout! Learn more

10-Day Weather Forecast

Advertisements
Track Severe Weather on mobile